Time,TemperatureF,DewpointF,PressureIn,WindDirection,WindDirectionDegrees,WindSpeedMPH,WindSpeedGustMPH,Humidity,HourlyPrecipIn,Conditions,Clouds,dailyrainin,SoftwareType,DateUTC
2013-01-20 00:00:00,23.9,16.8,27.37,North,0,0.9,0.9,74,0.00,,---,0.00,VWS V14.01,2013-01-20 06:00:00,
2013-01-20 00:03:00,24.6,12.7,27.37,NE,45,1.6,2.0,60,0.00,,---,0.00,VWS V14.01,2013-01-20 06:03:00,
2013-01-20 00:08:00,24.6,13.5,27.37,NE,45,2.0,3.1,62,0.00,,---,0.00,VWS V14.01,2013-01-20 06:08:00,
2013-01-20 00:13:00,24.4,13.7,27.37,NE,45,1.6,3.1,63,0.00,,---,0.00,VWS V14.01,2013-01-20 06:13:00,
2013-01-20 00:15:00,23.5,15.9,27.37,NNE,22,0.0,1.3,72,0.00,,---,0.00,VWS V14.01,2013-01-20 06:15:00,
2013-01-20 00:18:00,24.4,14.0,27.37,ENE,68,0.0,1.6,64,0.00,,---,0.00,VWS V14.01,2013-01-20 06:18:00,
2013-01-20 00:23:00,24.3,14.2,27.37,NE,45,2.5,2.5,65,0.00,,---,0.00,VWS V14.01,2013-01-20 06:23:00,
2013-01-20 00:28:00,23.9,14.6,27.37,NE,45,2.5,2.7,67,0.00,,---,0.00,VWS V14.01,2013-01-20 06:28:00,
2013-01-20 00:30:00,23.5,15.9,27.37,NNW,338,0.0,0.9,72,0.00,,---,0.00,VWS V14.01,2013-01-20 06:30:00,
2013-01-20 00:33:00,23.9,14.9,27.37,NE,45,2.5,2.5,68,0.00,,---,0.00,VWS V14.01,2013-01-20 06:33:00,
2013-01-20 00:38:00,23.9,15.9,27.37,NE,45,1.6,2.5,71,0.00,,---,0.00,VWS V14.01,2013-01-20 06:38:00,
2013-01-20 00:43:00,24.1,16.4,27.37,ENE,68,0.0,2.5,72,0.00,,---,0.00,VWS V14.01,2013-01-20 06:43:00,
2013-01-20 00:45:00,22.8,15.8,27.37,NNW,338,0.0,0.0,74,0.00,,---,0.00,VWS V14.01,2013-01-20 06:45:00,
2013-01-20 00:48:00,23.7,15.4,27.37,ENE,68,0.0,0.0,70,0.00,,---,0.00,VWS V14.01,2013-01-20 06:48:00,
2013-01-20 00:53:00,24.1,16.4,27.37,SW,225,0.0,0.0,72,0.00,,---,0.00,VWS V14.01,2013-01-20 06:53:00,
2013-01-20 00:58:00,23.9,16.5,27.37,North,0,0.0,0.0,73,0.00,,---,0.00,VWS V14.01,2013-01-20 06:58:00,
2013-01-20 01:00:00,22.5,16.6,27.34,SW,225,0.9,2.5,78,0.00,,---,0.00,VWS V14.01,2013-01-20 07:00:00,
2013-01-20 01:03:00,23.9,16.8,27.37,NE,45,0.9,1.3,74,0.00,,---,0.00,VWS V14.01,2013-01-20 07:03:00,
2013-01-20 01:08:00,23.7,16.4,27.37,West,270,0.0,1.3,73,0.00,,---,0.00,VWS V14.01,2013-01-20 07:08:00,
2013-01-20 01:13:00,23.7,16.0,27.37,NW,315,0.0,1.3,72,0.00,,---,0.00,VWS V14.01,2013-01-20 07:13:00,
2013-01-20 01:15:00,21.7,15.6,27.37,West,270,0.0,0.9,77,0.00,,---,0.00,VWS V14.01,2013-01-20 07:15:00,
2013-01-20 01:18:00,23.5,15.9,27.37,NNE,22,0.0,0.0,72,0.00,,---,0.00,VWS V14.01,2013-01-20 07:18:00,
2013-01-20 01:23:00,23.4,15.7,27.37,NNE,22,0.0,0.0,72,0.00,,---,0.00,VWS V14.01,2013-01-20 07:23:00,
2013-01-20 01:28:00,23.5,15.5,27.37,NW,315,0.0,0.0,71,0.00,,---,0.00,VWS V14.01,2013-01-20 07:28:00,
2013-01-20 01:30:00,21.2,14.8,27.37,NNE,22,0.0,1.6,76,0.00,,---,0.00,VWS V14.01,2013-01-20 07:30:00,
2013-01-20 01:33:00,23.7,17.0,27.37,North,0,0.0,0.0,75,0.00,,---,0.00,VWS V14.01,2013-01-20 07:33:00,
2013-01-20 01:38:00,23.5,16.8,27.37,North,0,0.0,0.0,75,0.00,,---,0.00,VWS V14.01,2013-01-20 07:38:00,
2013-01-20 01:43:00,23.0,16.0,27.37,NW,315,0.0,0.0,74,0.00,,---,0.00,VWS V14.01,2013-01-20 07:43:00,
2013-01-20 01:45:00,21.7,15.6,27.34,West,270,0.0,0.0,77,0.00,,---,0.00,VWS V14.01,2013-01-20 07:45:00,
2013-01-20 01:48:00,22.5,15.4,27.34,NNW,338,0.0,0.0,74,0.00,,---,0.00,VWS V14.01,2013-01-20 07:48:00,
2013-01-20 01:53:00,22.3,15.3,27.34,NW,315,0.0,0.0,74,0.00,,---,0.00,VWS V14.01,2013-01-20 07:53:00,
2013-01-20 01:58:00,22.5,16.4,27.34,NW,315,0.0,2.5,77,0.00,,---,0.00,VWS V14.01,2013-01-20 07:58:00,
2013-01-20 02:00:00,21.4,15.6,27.34,NE,45,0.0,0.0,78,0.00,,---,0.00,VWS V14.01,2013-01-20 08:00:00,
2013-01-20 02:03:00,22.1,16.6,27.37,South,180,0.0,0.9,79,0.00,,---,0.00,VWS V14.01,2013-01-20 08:03:00,
2013-01-20 02:08:00,21.6,15.5,27.37,North,0,0.0,0.9,77,0.00,,---,0.00,VWS V14.01,2013-01-20 08:08:00,
2013-01-20 02:13:00,21.7,15.9,27.37,West,270,0.0,0.9,78,0.00,,---,0.00,VWS V14.01,2013-01-20 08:13:00,
2013-01-20 02:15:00,21.2,15.7,27.34,NNW,338,0.0,1.6,79,0.00,,---,0.00,VWS V14.01,2013-01-20 08:15:00,
2013-01-20 02:18:00,21.6,15.5,27.37,NE,45,0.0,0.0,77,0.00,,---,0.00,VWS V14.01,2013-01-20 08:18:00,
2013-01-20 02:23:00,21.2,14.5,27.37,NE,45,0.0,0.0,75,0.00,,---,0.00,VWS V14.01,2013-01-20 08:23:00,
2013-01-20 02:28:00,21.2,14.8,27.37,NE,45,0.0,1.6,76,0.00,,---,0.00,VWS V14.01,2013-01-20 08:28:00,
2013-01-20 02:33:00,21.4,15.0,27.34,West,270,0.0,0.0,76,0.00,,---,0.00,VWS V14.01,2013-01-20 08:33:00,
2013-01-20 02:38:00,21.7,15.9,27.34,West,270,0.0,0.0,78,0.00,,---,0.00,VWS V14.01,2013-01-20 08:38:00,
2013-01-20 02:43:00,21.7,15.6,27.34,West,270,0.0,0.0,77,0.00,,---,0.00,VWS V14.01,2013-01-20 08:43:00,
2013-01-20 02:45:00,19.9,14.2,27.31,ENE,68,2.5,2.9,78,0.00,,---,0.00,VWS V14.01,2013-01-20 08:45:00,
2013-01-20 02:48:00,21.7,15.9,27.34,North,0,0.0,0.0,78,0.00,,---,0.00,VWS V14.01,2013-01-20 08:48:00,
2013-01-20 02:53:00,21.4,15.6,27.34,NE,45,0.0,0.0,78,0.00,,---,0.00,VWS V14.01,2013-01-20 08:53:00,
2013-01-20 02:58:00,21.4,15.6,27.34,NE,45,0.0,0.0,78,0.00,,---,0.00,VWS V14.01,2013-01-20 08:58:00,
2013-01-20 03:00:00,20.5,16.1,27.31,NE,45,2.5,3.1,83,0.00,,---,0.00,VWS V14.01,2013-01-20 09:00:00,
2013-01-20 03:03:00,21.4,15.6,27.34,NNW,338,0.0,1.6,78,0.00,,---,0.00,VWS V14.01,2013-01-20 09:03:00,
2013-01-20 03:08:00,21.4,15.6,27.34,NNW,338,0.0,1.6,78,0.00,,---,0.00,VWS V14.01,2013-01-20 09:08:00,
2013-01-20 03:13:00,21.2,15.7,27.34,NNW,338,0.0,1.6,79,0.00,,---,0.00,VWS V14.01,2013-01-20 09:13:00,
2013-01-20 03:15:00,21.0,17.5,27.31,NE,45,2.5,3.8,86,0.00,,---,0.00,VWS V14.01,2013-01-20 09:15:00,
2013-01-20 03:18:00,21.0,15.5,27.34,WNW,292,0.0,0.0,79,0.00,,---,0.00,VWS V14.01,2013-01-20 09:18:00,
2013-01-20 03:23:00,20.8,15.1,27.34,SE,135,0.0,0.0,78,0.00,,---,0.00,VWS V14.01,2013-01-20 09:23:00,
2013-01-20 03:28:00,19.9,14.2,27.34,SE,135,0.0,0.0,78,0.00,,---,0.00,VWS V14.01,2013-01-20 09:28:00,
2013-01-20 03:30:00,20.3,16.0,27.31,North,0,0.0,3.8,83,0.00,,---,0.00,VWS V14.01,2013-01-20 09:30:00,
2013-01-20 03:33:00,19.6,13.3,27.31,NE,45,0.0,0.0,76,0.00,,---,0.00,VWS V14.01,2013-01-20 09:33:00,
2013-01-20 03:38:00,19.8,13.4,27.31,NE,45,0.0,2.7,76,0.00,,---,0.00,VWS V14.01,2013-01-20 09:38:00,
2013-01-20 03:43:00,19.9,14.2,27.31,NE,45,2.5,2.9,78,0.00,,---,0.00,VWS V14.01,2013-01-20 09:43:00,
2013-01-20 03:45:00,20.7,17.4,27.31,East,90,3.1,4.5,87,0.00,,---,0.00,VWS V14.01,2013-01-20 09:45:00,
2013-01-20 03:48:00,19.8,14.3,27.31,East,90,2.5,2.9,79,0.00,,---,0.00,VWS V14.01,2013-01-20 09:48:00,
2013-01-20 03:53:00,20.3,15.7,27.31,ESE,112,2.5,3.1,82,0.00,,---,0.00,VWS V14.01,2013-01-20 09:53:00,
2013-01-20 03:58:00,20.7,16.3,27.31,East,90,0.0,3.1,83,0.00,,---,0.00,VWS V14.01,2013-01-20 09:58:00,
2013-01-20 04:00:00,19.8,15.2,27.31,East,90,0.0,3.1,82,0.00,,---,0.00,VWS V14.01,2013-01-20 10:00:00,
2013-01-20 04:03:00,20.8,16.5,27.31,NE,45,3.4,3.8,83,0.00,,---,0.00,VWS V14.01,2013-01-20 10:03:00,
2013-01-20 04:08:00,20.8,17.0,27.31,NE,45,2.2,3.8,85,0.00,,---,0.00,VWS V14.01,2013-01-20 10:08:00,
2013-01-20 04:13:00,21.2,17.7,27.31,NE,45,3.6,3.8,86,0.00,,---,0.00,VWS V14.01,2013-01-20 10:13:00,
2013-01-20 04:15:00,20.5,16.1,27.28,SSE,158,0.9,2.9,83,0.00,,---,0.00,VWS V14.01,2013-01-20 10:15:00,
2013-01-20 04:18:00,21.0,17.2,27.31,NNE,22,2.7,3.1,85,0.00,,---,0.00,VWS V14.01,2013-01-20 10:18:00,
2013-01-20 04:23:00,20.7,16.6,27.31,North,0,2.9,3.8,84,0.00,,---,0.00,VWS V14.01,2013-01-20 10:23:00,
2013-01-20 04:28:00,20.5,16.1,27.31,NNW,338,0.0,3.8,83,0.00,,---,0.00,VWS V14.01,2013-01-20 10:28:00,
2013-01-20 04:30:00,19.2,14.6,27.31,East,90,0.0,2.7,82,0.00,,---,0.00,VWS V14.01,2013-01-20 10:30:00,
2013-01-20 04:33:00,19.8,14.9,27.31,North,0,1.3,2.7,81,0.00,,---,0.00,VWS V14.01,2013-01-20 10:33:00,
2013-01-20 04:38:00,19.8,14.6,27.31,NNE,22,1.6,2.7,80,0.00,,---,0.00,VWS V14.01,2013-01-20 10:38:00,
2013-01-20 04:43:00,20.3,16.5,27.31,NE,45,2.9,4.5,85,0.00,,---,0.00,VWS V14.01,2013-01-20 10:43:00,
2013-01-20 04:45:00,19.8,16.3,27.31,East,90,0.0,3.8,86,0.00,,---,0.00,VWS V14.01,2013-01-20 10:45:00,
2013-01-20 04:48:00,20.8,17.9,27.31,South,180,1.6,3.1,88,0.00,,---,0.00,VWS V14.01,2013-01-20 10:48:00,
2013-01-20 04:53:00,20.7,17.4,27.31,East,90,0.0,3.1,87,0.00,,---,0.00,VWS V14.01,2013-01-20 10:53:00,
2013-01-20 04:58:00,19.8,15.2,27.31,East,90,0.0,3.1,82,0.00,,---,0.00,VWS V14.01,2013-01-20 10:58:00,
2013-01-20 05:00:00,19.4,16.4,27.31,SE,135,0.0,2.5,88,0.00,,---,0.00,VWS V14.01,2013-01-20 11:00:00,
2013-01-20 05:03:00,19.9,15.3,27.28,ESE,112,2.5,2.9,82,0.00,,---,0.00,VWS V14.01,2013-01-20 11:03:00,
2013-01-20 05:08:00,20.5,16.1,27.28,WNW,292,2.7,2.9,83,0.00,,---,0.00,VWS V14.01,2013-01-20 11:08:00,
2013-01-20 05:13:00,20.5,16.1,27.28,NNE,22,0.0,2.9,83,0.00,,---,0.00,VWS V14.01,2013-01-20 11:13:00,
2013-01-20 05:15:00,19.2,15.7,27.28,East,90,1.6,2.9,86,0.00,,---,0.00,VWS V14.01,2013-01-20 11:15:00,
2013-01-20 05:18:00,20.7,16.9,27.31,SW,225,2.0,2.7,85,0.00,,---,0.00,VWS V14.01,2013-01-20 11:18:00,
2013-01-20 05:23:00,19.8,15.4,27.31,South,180,2.0,2.7,83,0.00,,---,0.00,VWS V14.01,2013-01-20 11:23:00,
2013-01-20 05:28:00,19.2,14.6,27.31,East,90,0.0,2.7,82,0.00,,---,0.00,VWS V14.01,2013-01-20 11:28:00,
2013-01-20 05:30:00,19.4,15.6,27.28,SE,135,3.6,3.6,85,0.00,,---,0.00,VWS V14.01,2013-01-20 11:30:00,
2013-01-20 05:33:00,19.2,14.6,27.31,ESE,112,3.4,3.4,82,0.00,,---,0.00,VWS V14.01,2013-01-20 11:33:00,
2013-01-20 05:38:00,19.8,15.4,27.31,South,180,0.0,3.8,83,0.00,,---,0.00,VWS V14.01,2013-01-20 11:38:00,
2013-01-20 05:43:00,19.9,16.7,27.31,South,180,0.0,3.8,87,0.00,,---,0.00,VWS V14.01,2013-01-20 11:43:00,
2013-01-20 05:45:00,19.0,15.0,27.28,NE,45,0.0,5.4,84,0.00,,---,0.00,VWS V14.01,2013-01-20 11:45:00,
2013-01-20 05:48:00,19.8,16.0,27.31,SE,135,2.5,2.5,85,0.00,,---,0.00,VWS V14.01,2013-01-20 11:48:00,
2013-01-20 05:53:00,20.1,17.4,27.31,South,180,0.0,2.5,89,0.00,,---,0.00,VWS V14.01,2013-01-20 11:53:00,
2013-01-20 05:58:00,19.6,16.6,27.31,SE,135,0.0,2.5,88,0.00,,---,0.00,VWS V14.01,2013-01-20 11:58:00,
2013-01-20 06:00:00,19.0,15.0,27.28,East,90,0.0,1.1,84,0.00,,---,0.00,VWS V14.01,2013-01-20 12:00:00,
2013-01-20 06:03:00,19.2,16.3,27.28,SSW,202,0.0,0.0,88,0.00,,---,0.00,VWS V14.01,2013-01-20 12:03:00,
2013-01-20 06:08:00,19.2,16.5,27.28,SE,135,1.6,2.0,89,0.00,,---,0.00,VWS V14.01,2013-01-20 12:08:00,
2013-01-20 06:13:00,19.2,15.7,27.28,ESE,112,2.5,2.9,86,0.00,,---,0.00,VWS V14.01,2013-01-20 12:13:00,
2013-01-20 06:15:00,19.8,17.0,27.31,NE,45,7.4,7.8,89,0.00,,---,0.00,VWS V14.01,2013-01-20 12:15:00,
2013-01-20 06:18:00,19.4,15.6,27.28,North,0,2.2,2.5,85,0.00,,---,0.00,VWS V14.01,2013-01-20 12:18:00,
2013-01-20 06:23:00,19.4,15.6,27.28,NW,315,0.0,2.7,85,0.00,,---,0.00,VWS V14.01,2013-01-20 12:23:00,
2013-01-20 06:28:00,19.4,15.6,27.28,SE,135,3.1,3.1,85,0.00,,---,0.00,VWS V14.01,2013-01-20 12:28:00,
2013-01-20 06:30:00,19.6,17.4,27.34,WSW,248,2.2,8.1,91,0.00,,---,0.00,VWS V14.01,2013-01-20 12:30:00,
2013-01-20 06:33:00,19.2,15.5,27.28,SSE,158,2.5,5.4,85,0.00,,---,0.00,VWS V14.01,2013-01-20 12:33:00,
2013-01-20 06:38:00,19.0,15.3,27.28,East,90,0.0,5.4,85,0.00,,---,0.00,VWS V14.01,2013-01-20 12:38:00,
2013-01-20 06:43:00,19.0,15.3,27.28,NE,45,0.0,5.4,85,0.00,,---,0.00,VWS V14.01,2013-01-20 12:43:00,
2013-01-20 06:45:00,20.1,17.9,27.31,NE,45,4.3,5.8,91,0.00,,---,0.00,VWS V14.01,2013-01-20 12:45:00,
2013-01-20 06:48:00,19.0,15.0,27.28,SE,135,0.0,0.9,84,0.00,,---,0.00,VWS V14.01,2013-01-20 12:48:00,
2013-01-20 06:53:00,19.0,15.0,27.28,SE,135,0.0,0.9,84,0.00,,---,0.00,VWS V14.01,2013-01-20 12:53:00,
2013-01-20 06:58:00,19.0,14.7,27.28,East,90,0.0,1.1,83,0.00,,---,0.00,VWS V14.01,2013-01-20 12:58:00,
2013-01-20 07:00:00,20.3,18.6,27.31,NE,45,4.3,5.8,93,0.00,,---,0.00,VWS V14.01,2013-01-20 13:00:00,
2013-01-20 07:03:00,18.9,14.8,27.31,East,90,0.0,0.0,84,0.00,,---,0.00,VWS V14.01,2013-01-20 13:03:00,
2013-01-20 07:08:00,19.0,14.7,27.31,NNE,22,3.6,3.6,83,0.00,,---,0.00,VWS V14.01,2013-01-20 13:08:00,
2013-01-20 07:13:00,19.6,16.6,27.31,NNE,22,6.3,7.8,88,0.00,,---,0.00,VWS V14.01,2013-01-20 13:13:00,
2013-01-20 07:15:00,20.3,18.1,27.31,NW,315,4.3,5.4,91,0.00,,---,0.00,VWS V14.01,2013-01-20 13:15:00,
2013-01-20 07:18:00,20.3,18.4,27.34,NNE,22,6.5,8.1,92,0.00,,---,0.00,VWS V14.01,2013-01-20 13:18:00,
2013-01-20 07:23:00,20.1,18.4,27.34,NE,45,3.4,8.1,93,0.00,,---,0.00,VWS V14.01,2013-01-20 13:23:00,
2013-01-20 07:28:00,19.8,17.8,27.34,SW,225,1.3,8.1,92,0.00,,---,0.00,VWS V14.01,2013-01-20 13:28:00,
2013-01-20 07:30:00,20.3,17.8,27.31,NW,315,4.3,5.4,90,0.00,,---,0.00,VWS V14.01,2013-01-20 13:30:00,
2013-01-20 07:33:00,19.6,17.4,27.31,NNW,338,3.1,3.1,91,0.00,,---,0.00,VWS V14.01,2013-01-20 13:33:00,
2013-01-20 07:38:00,19.6,16.9,27.31,NE,45,5.8,5.8,89,0.00,,---,0.00,VWS V14.01,2013-01-20 13:38:00,
2013-01-20 07:43:00,19.9,17.5,27.31,ENE,68,3.8,5.8,90,0.00,,---,0.00,VWS V14.01,2013-01-20 13:43:00,
2013-01-20 07:45:00,22.1,20.1,27.34,North,0,2.5,4.5,92,0.00,,---,0.00,VWS V14.01,2013-01-20 13:45:00,
2013-01-20 07:48:00,20.3,18.1,27.31,NNE,22,5.6,5.6,91,0.00,,---,0.00,VWS V14.01,2013-01-20 13:48:00,
2013-01-20 07:53:00,20.5,18.8,27.31,NNE,22,4.0,5.6,93,0.00,,---,0.00,VWS V14.01,2013-01-20 13:53:00,
2013-01-20 07:58:00,20.5,18.8,27.31,North,0,4.9,5.8,93,0.00,,---,0.00,VWS V14.01,2013-01-20 13:58:00,
2013-01-20 08:00:00,23.5,21.6,27.37,NNE,22,3.4,4.3,92,0.00,,---,0.00,VWS V14.01,2013-01-20 14:00:00,
2013-01-20 08:03:00,20.3,18.4,27.31,NE,45,5.4,5.4,92,0.00,,---,0.00,VWS V14.01,2013-01-20 14:03:00,
2013-01-20 08:08:00,20.3,18.4,27.31,North,0,3.1,5.4,92,0.00,,---,0.00,VWS V14.01,2013-01-20 14:08:00,
2013-01-20 08:13:00,20.5,18.5,27.31,NW,315,5.4,5.4,92,0.00,,---,0.00,VWS V14.01,2013-01-20 14:13:00,
2013-01-20 08:15:00,24.1,21.6,27.34,NE,45,3.4,4.9,90,0.00,,---,0.00,VWS V14.01,2013-01-20 14:15:00,
2013-01-20 08:18:00,20.1,17.7,27.31,NW,315,2.0,4.3,90,0.00,,---,0.00,VWS V14.01,2013-01-20 14:18:00,
2013-01-20 08:23:00,20.1,17.4,27.31,NW,315,3.8,4.9,89,0.00,,---,0.00,VWS V14.01,2013-01-20 14:23:00,
2013-01-20 08:28:00,20.3,17.8,27.31,NW,315,2.9,5.4,90,0.00,,---,0.00,VWS V14.01,2013-01-20 14:28:00,
2013-01-20 08:30:00,25.3,22.6,27.34,East,90,1.6,4.0,89,0.00,,---,0.00,VWS V14.01,2013-01-20 14:30:00,
2013-01-20 08:33:00,20.7,18.5,27.34,NW,315,3.8,4.3,91,0.00,,---,0.00,VWS V14.01,2013-01-20 14:33:00,
2013-01-20 08:38:00,21.2,19.2,27.34,NW,315,3.1,4.3,92,0.00,,---,0.00,VWS V14.01,2013-01-20 14:38:00,
2013-01-20 08:43:00,21.9,20.0,27.34,NW,315,2.5,4.5,92,0.00,,---,0.00,VWS V14.01,2013-01-20 14:43:00,
2013-01-20 08:45:00,26.6,23.8,27.34,ESE,112,3.6,4.5,89,0.00,,---,0.00,VWS V14.01,2013-01-20 14:45:00,
2013-01-20 08:48:00,22.5,20.5,27.37,NNW,338,2.9,2.9,92,0.00,,---,0.00,VWS V14.01,2013-01-20 14:48:00,
2013-01-20 08:53:00,23.2,21.2,27.37,NW,315,2.7,4.3,92,0.00,,---,0.00,VWS V14.01,2013-01-20 14:53:00,
2013-01-20 08:58:00,23.5,21.6,27.37,North,0,2.9,4.3,92,0.00,,---,0.00,VWS V14.01,2013-01-20 14:58:00,
2013-01-20 09:00:00,28.6,25.8,27.34,South,180,2.9,4.3,89,0.00,,---,0.00,VWS V14.01,2013-01-20 15:00:00,
2013-01-20 09:03:00,23.9,21.7,27.34,North,0,3.1,4.3,91,0.00,,---,0.00,VWS V14.01,2013-01-20 15:03:00,
2013-01-20 09:08:00,24.1,21.8,27.34,NNE,22,3.4,4.9,91,0.00,,---,0.00,VWS V14.01,2013-01-20 15:08:00,
2013-01-20 09:13:00,24.1,21.6,27.34,NE,45,4.3,4.9,90,0.00,,---,0.00,VWS V14.01,2013-01-20 15:13:00,
2013-01-20 09:15:00,29.7,24.9,27.37,South,180,2.5,3.8,82,0.00,,---,0.00,VWS V14.01,2013-01-20 15:15:00,
2013-01-20 09:18:00,24.3,21.8,27.34,East,90,3.6,4.0,90,0.00,,---,0.00,VWS V14.01,2013-01-20 15:18:00,
2013-01-20 09:23:00,24.6,22.1,27.34,ENE,68,1.6,4.0,90,0.00,,---,0.00,VWS V14.01,2013-01-20 15:23:00,
2013-01-20 09:28:00,25.2,22.4,27.34,ENE,68,0.0,4.0,89,0.00,,---,0.00,VWS V14.01,2013-01-20 15:28:00,
2013-01-20 09:33:00,25.5,22.7,27.34,East,90,1.3,1.6,89,0.00,,---,0.00,VWS V14.01,2013-01-20 15:33:00,
2013-01-20 09:38:00,26.1,23.3,27.34,NE,45,0.0,1.6,89,0.00,,---,0.00,VWS V14.01,2013-01-20 15:38:00,
2013-01-20 09:43:00,26.4,23.6,27.34,SE,135,4.3,4.3,89,0.00,,---,0.00,VWS V14.01,2013-01-20 15:43:00,
2013-01-20 09:45:00,36.7,26.8,27.37,West,270,1.6,3.4,67,0.00,,---,0.00,VWS V14.01,2013-01-20 15:45:00,
2013-01-20 09:48:00,26.8,24.0,27.34,SE,135,4.0,4.0,89,0.00,,---,0.00,VWS V14.01,2013-01-20 15:48:00,
2013-01-20 09:53:00,27.0,24.2,27.34,SE,135,2.5,4.3,89,0.00,,---,0.00,VWS V14.01,2013-01-20 15:53:00,
2013-01-20 09:58:00,28.0,25.2,27.34,SE,135,2.7,4.3,89,0.00,,---,0.00,VWS V14.01,2013-01-20 15:58:00,
2013-01-20 10:00:00,35.2,23.1,27.37,WNW,292,2.0,4.3,61,0.00,,---,0.00,VWS V14.01,2013-01-20 16:00:00,
2013-01-20 10:03:00,30.2,27.1,27.37,ESE,112,0.0,3.1,88,0.00,,---,0.00,VWS V14.01,2013-01-20 16:03:00,
2013-01-20 10:08:00,30.4,27.3,27.37,SSE,158,3.8,3.8,88,0.00,,---,0.00,VWS V14.01,2013-01-20 16:08:00,
2013-01-20 10:13:00,29.8,25.0,27.37,SE,135,2.0,3.8,82,0.00,,---,0.00,VWS V14.01,2013-01-20 16:13:00,
2013-01-20 10:15:00,35.6,23.5,27.37,NW,315,5.8,6.0,61,0.00,,---,0.00,VWS V14.01,2013-01-20 16:15:00,
2013-01-20 10:18:00,30.2,25.1,27.34,SSE,158,1.6,2.5,81,0.00,,---,0.00,VWS V14.01,2013-01-20 16:18:00,
2013-01-20 10:23:00,31.5,26.0,27.34,South,180,0.0,2.5,80,0.00,,---,0.00,VWS V14.01,2013-01-20 16:23:00,
2013-01-20 10:28:00,32.7,26.6,27.34,South,180,1.6,3.4,78,0.00,,---,0.00,VWS V14.01,2013-01-20 16:28:00,
2013-01-20 10:30:00,37.2,25.0,27.37,SW,225,2.5,5.8,61,0.00,,---,0.00,VWS V14.01,2013-01-20 16:30:00,
2013-01-20 10:33:00,33.1,26.4,27.37,SW,225,1.6,3.4,76,0.00,,---,0.00,VWS V14.01,2013-01-20 16:33:00,
2013-01-20 10:38:00,35.6,28.8,27.37,NW,315,2.2,3.4,76,0.00,,---,0.00,VWS V14.01,2013-01-20 16:38:00,
2013-01-20 10:43:00,36.3,27.1,27.37,South,180,3.1,3.4,69,0.00,,---,0.00,VWS V14.01,2013-01-20 16:43:00,
2013-01-20 10:48:00,36.7,26.4,27.37,NW,315,2.9,2.9,66,0.00,,---,0.00,VWS V14.01,2013-01-20 16:48:00,
2013-01-20 10:53:00,36.1,24.0,27.37,West,270,2.5,4.3,61,0.00,,---,0.00,VWS V14.01,2013-01-20 16:53:00,
2013-01-20 10:58:00,35.4,23.3,27.37,West,270,1.6,4.3,61,0.00,,---,0.00,VWS V14.01,2013-01-20 16:58:00,
2013-01-20 11:00:00,44.8,28.2,27.37,WNW,292,2.5,6.5,52,0.00,,---,0.00,VWS V14.01,2013-01-20 17:00:00,
2013-01-20 11:03:00,35.4,23.7,27.37,West,270,4.3,4.3,62,0.00,,---,0.00,VWS V14.01,2013-01-20 17:03:00,
2013-01-20 11:08:00,35.8,24.0,27.37,West,270,3.1,4.3,62,0.00,,---,0.00,VWS V14.01,2013-01-20 17:08:00,
2013-01-20 11:13:00,35.6,23.1,27.37,West,270,2.5,6.0,60,0.00,,---,0.00,VWS V14.01,2013-01-20 17:13:00,
2013-01-20 11:15:00,46.8,27.1,27.37,North,0,7.6,12.1,46,0.00,,---,0.00,VWS V14.01,2013-01-20 17:15:00,
2013-01-20 11:18:00,35.4,23.3,27.37,West,270,3.8,5.8,61,0.00,,---,0.00,VWS V14.01,2013-01-20 17:18:00,
2013-01-20 11:23:00,35.6,23.5,27.37,NW,315,4.0,5.8,61,0.00,,---,0.00,VWS V14.01,2013-01-20 17:23:00,
2013-01-20 11:28:00,36.9,24.7,27.37,NW,315,1.3,5.8,61,0.00,,---,0.00,VWS V14.01,2013-01-20 17:28:00,
2013-01-20 11:30:00,45.3,25.8,27.37,North,0,12.3,15.4,46,0.00,,---,0.00,VWS V14.01,2013-01-20 17:30:00,
2013-01-20 11:33:00,38.1,25.5,27.37,West,270,4.9,5.8,60,0.00,,---,0.00,VWS V14.01,2013-01-20 17:33:00,
2013-01-20 11:38:00,39.4,25.9,27.37,WNW,292,2.7,5.8,58,0.00,,---,0.00,VWS V14.01,2013-01-20 17:38:00,
2013-01-20 11:43:00,41.0,26.5,27.37,WNW,292,3.4,5.8,56,0.00,,---,0.00,VWS V14.01,2013-01-20 17:43:00,
2013-01-20 11:45:00,45.9,25.7,27.37,North,0,12.8,26.6,45,0.00,,---,0.00,VWS V14.01,2013-01-20 17:45:00,
2013-01-20 11:48:00,41.7,26.8,27.37,NNW,338,3.1,6.5,55,0.00,,---,0.00,VWS V14.01,2013-01-20 17:48:00,
2013-01-20 11:53:00,42.8,26.9,27.37,NW,315,2.9,6.5,53,0.00,,---,0.00,VWS V14.01,2013-01-20 17:53:00,
2013-01-20 11:58:00,44.1,28.5,27.37,WNW,292,3.1,6.5,54,0.00,,---,0.00,VWS V14.01,2013-01-20 17:58:00,
2013-01-20 12:00:00,46.2,25.5,27.37,North,0,15.2,24.2,44,0.00,,---,0.00,VWS V14.01,2013-01-20 18:00:00,
2013-01-20 12:03:00,45.5,28.9,27.37,NNW,338,0.0,3.4,52,0.00,,---,0.00,VWS V14.01,2013-01-20 18:03:00,
2013-01-20 12:08:00,47.5,30.3,27.37,North,0,3.8,5.8,51,0.00,,---,0.00,VWS V14.01,2013-01-20 18:08:00,
2013-01-20 12:13:00,47.7,29.0,27.37,NW,315,10.5,10.5,48,0.00,,---,0.00,VWS V14.01,2013-01-20 18:13:00,
2013-01-20 12:15:00,46.4,24.6,27.37,North,0,15.7,26.2,42,0.00,,---,0.00,VWS V14.01,2013-01-20 18:15:00,
2013-01-20 12:18:00,46.4,26.8,27.37,North,0,10.5,13.0,46,0.00,,---,0.00,VWS V14.01,2013-01-20 18:18:00,
2013-01-20 12:23:00,46.0,26.4,27.37,NW,315,13.6,13.6,46,0.00,,---,0.00,VWS V14.01,2013-01-20 18:23:00,
2013-01-20 12:28:00,45.3,25.8,27.37,NNW,338,15.4,15.4,46,0.00,,---,0.00,VWS V14.01,2013-01-20 18:28:00,
2013-01-20 12:30:00,45.9,25.2,27.34,NNW,338,15.4,23.5,44,0.00,,---,0.00,VWS V14.01,2013-01-20 18:30:00,
2013-01-20 12:33:00,45.3,25.8,27.37,North,0,11.0,12.5,46,0.00,,---,0.00,VWS V14.01,2013-01-20 18:33:00,
2013-01-20 12:38:00,45.1,25.6,27.37,North,0,13.2,13.4,46,0.00,,---,0.00,VWS V14.01,2013-01-20 18:38:00,
2013-01-20 12:43:00,45.5,25.9,27.37,North,0,10.3,26.6,46,0.00,,---,0.00,VWS V14.01,2013-01-20 18:43:00,
2013-01-20 12:45:00,46.6,25.3,27.34,North,0,23.0,23.5,43,0.00,,---,0.00,VWS V14.01,2013-01-20 18:45:00,
2013-01-20 12:48:00,46.0,25.9,27.37,NW,315,13.0,19.2,45,0.00,,---,0.00,VWS V14.01,2013-01-20 18:48:00,
2013-01-20 12:53:00,45.5,24.9,27.37,North,0,12.5,24.2,44,0.00,,---,0.00,VWS V14.01,2013-01-20 18:53:00,
2013-01-20 12:58:00,46.0,25.9,27.37,North,0,16.3,24.2,45,0.00,,---,0.00,VWS V14.01,2013-01-20 18:58:00,
2013-01-20 13:00:00,45.0,24.4,27.34,North,0,22.4,26.9,44,0.00,,---,0.00,VWS V14.01,2013-01-20 19:00:00,
2013-01-20 13:03:00,46.4,25.7,27.37,North,0,20.4,23.5,44,0.00,,---,0.00,VWS V14.01,2013-01-20 19:03:00,
2013-01-20 13:08:00,46.6,25.9,27.37,NNE,22,23.7,23.7,44,0.00,,---,0.00,VWS V14.01,2013-01-20 19:08:00,
2013-01-20 13:13:00,46.4,25.1,27.37,North,0,13.9,26.2,43,0.00,,---,0.00,VWS V14.01,2013-01-20 19:13:00,
2013-01-20 13:15:00,42.1,21.2,27.34,North,0,25.3,28.9,43,0.00,,---,0.00,VWS V14.01,2013-01-20 19:15:00,
2013-01-20 13:18:00,46.2,25.0,27.34,North,0,18.6,22.4,43,0.00,,---,0.00,VWS V14.01,2013-01-20 19:18:00,
2013-01-20 13:23:00,45.5,24.3,27.34,NNW,338,13.0,23.5,43,0.00,,---,0.00,VWS V14.01,2013-01-20 19:23:00,
2013-01-20 13:28:00,45.5,24.3,27.34,North,0,13.2,23.5,43,0.00,,---,0.00,VWS V14.01,2013-01-20 19:28:00,
2013-01-20 13:30:00,39.9,19.8,27.34,North,0,23.5,30.9,44,0.00,,---,0.00,VWS V14.01,2013-01-20 19:30:00,
2013-01-20 13:33:00,45.9,24.6,27.34,North,0,18.6,23.5,43,0.00,,---,0.00,VWS V14.01,2013-01-20 19:33:00,
2013-01-20 13:38:00,46.0,24.8,27.34,NW,315,13.0,23.5,43,0.00,,---,0.00,VWS V14.01,2013-01-20 19:38:00,
2013-01-20 13:43:00,46.6,25.3,27.34,North,0,12.8,23.5,43,0.00,,---,0.00,VWS V14.01,2013-01-20 19:43:00,
2013-01-20 13:45:00,39.0,19.5,27.34,North,0,24.4,27.5,45,0.00,,---,0.00,VWS V14.01,2013-01-20 19:45:00,
2013-01-20 13:48:00,46.2,25.0,27.34,North,0,11.0,24.2,43,0.00,,---,0.00,VWS V14.01,2013-01-20 19:48:00,
2013-01-20 13:53:00,46.0,24.8,27.34,NW,315,13.2,24.2,43,0.00,,---,0.00,VWS V14.01,2013-01-20 19:53:00,
2013-01-20 13:58:00,45.1,24.5,27.34,North,0,25.7,25.7,44,0.00,,---,0.00,VWS V14.01,2013-01-20 19:58:00,
2013-01-20 14:00:00,38.3,19.4,27.37,North,0,28.6,28.6,46,0.00,,---,0.00,VWS V14.01,2013-01-20 20:00:00,
2013-01-20 14:03:00,44.2,23.7,27.34,NNW,338,23.0,25.1,44,0.00,,---,0.00,VWS V14.01,2013-01-20 20:03:00,
2013-01-20 14:08:00,43.3,22.9,27.34,North,0,24.2,27.3,44,0.00,,---,0.00,VWS V14.01,2013-01-20 20:08:00,
2013-01-20 14:13:00,43.2,22.2,27.34,West,270,15.4,27.3,43,0.00,,---,0.00,VWS V14.01,2013-01-20 20:13:00,
2013-01-20 14:15:00,36.3,18.0,27.37,North,0,18.6,29.1,47,0.00,,---,0.00,VWS V14.01,2013-01-20 20:15:00,
2013-01-20 14:18:00,41.2,20.4,27.34,North,0,23.5,30.9,43,0.00,,---,0.00,VWS V14.01,2013-01-20 20:18:00,
2013-01-20 14:23:00,41.2,20.9,27.34,North,0,22.8,30.9,44,0.00,,---,0.00,VWS V14.01,2013-01-20 20:23:00,
2013-01-20 14:28:00,39.9,19.8,27.34,North,0,23.9,30.9,44,0.00,,---,0.00,VWS V14.01,2013-01-20 20:28:00,
2013-01-20 14:30:00,35.1,17.4,27.37,North,0,21.3,26.0,48,0.00,,---,0.00,VWS V14.01,2013-01-20 20:30:00,
2013-01-20 14:33:00,39.6,19.5,27.34,North,0,23.0,26.4,44,0.00,,---,0.00,VWS V14.01,2013-01-20 20:33:00,
2013-01-20 14:38:00,38.7,19.2,27.34,NNE,22,24.2,27.5,45,0.00,,---,0.00,VWS V14.01,2013-01-20 20:38:00,
2013-01-20 14:43:00,39.2,19.1,27.34,North,0,23.5,27.5,44,0.00,,---,0.00,VWS V14.01,2013-01-20 20:43:00,
2013-01-20 14:45:00,32.7,16.1,27.37,NW,315,10.7,24.4,50,0.00,,---,0.00,VWS V14.01,2013-01-20 20:45:00,
2013-01-20 14:48:00,38.8,19.3,27.37,North,0,20.6,25.1,45,0.00,,---,0.00,VWS V14.01,2013-01-20 20:48:00,
2013-01-20 14:53:00,38.5,19.0,27.37,North,0,23.7,26.6,45,0.00,,---,0.00,VWS V14.01,2013-01-20 20:53:00,
2013-01-20 14:58:00,38.5,19.5,27.37,North,0,12.5,28.4,46,0.00,,---,0.00,VWS V14.01,2013-01-20 20:58:00,
2013-01-20 15:00:00,31.5,15.4,27.37,NNE,22,12.5,24.2,51,0.00,,---,0.00,VWS V14.01,2013-01-20 21:00:00,
2013-01-20 15:03:00,37.4,18.0,27.37,North,0,25.1,29.1,45,0.00,,---,0.00,VWS V14.01,2013-01-20 21:03:00,
2013-01-20 15:08:00,36.3,17.5,27.37,NW,315,22.2,29.1,46,0.00,,---,0.00,VWS V14.01,2013-01-20 21:08:00,
2013-01-20 15:13:00,36.3,18.0,27.37,North,0,17.2,29.1,47,0.00,,---,0.00,VWS V14.01,2013-01-20 21:13:00,
2013-01-20 15:15:00,31.1,14.6,27.37,NNW,338,10.3,25.1,50,0.00,,---,0.00,VWS V14.01,2013-01-20 21:15:00,
2013-01-20 15:18:00,36.1,17.9,27.37,North,0,17.5,22.2,47,0.00,,---,0.00,VWS V14.01,2013-01-20 21:18:00,
2013-01-20 15:23:00,35.4,17.2,27.37,North,0,19.2,25.7,47,0.00,,---,0.00,VWS V14.01,2013-01-20 21:23:00,
2013-01-20 15:28:00,35.1,17.4,27.37,North,0,23.3,26.0,48,0.00,,---,0.00,VWS V14.01,2013-01-20 21:28:00,
2013-01-20 15:30:00,30.7,14.3,27.37,NNE,22,8.7,19.7,50,0.00,,---,0.00,VWS V14.01,2013-01-20 21:30:00,
2013-01-20 15:33:00,33.4,16.4,27.37,NW,315,17.5,23.5,49,0.00,,---,0.00,VWS V14.01,2013-01-20 21:33:00,
2013-01-20 15:38:00,33.3,16.6,27.37,North,0,17.0,23.5,50,0.00,,---,0.00,VWS V14.01,2013-01-20 21:38:00,
2013-01-20 15:43:00,32.9,16.3,27.37,North,0,11.0,24.4,50,0.00,,---,0.00,VWS V14.01,2013-01-20 21:43:00,
2013-01-20 15:45:00,28.4,13.0,27.43,NNE,22,12.5,18.1,52,0.00,,---,0.00,VWS V14.01,2013-01-20 21:45:00,
2013-01-20 15:48:00,32.4,15.8,27.37,NNE,22,17.0,17.2,50,0.00,,---,0.00,VWS V14.01,2013-01-20 21:48:00,
2013-01-20 15:53:00,31.6,15.6,27.37,North,0,13.4,20.6,51,0.00,,---,0.00,VWS V14.01,2013-01-20 21:53:00,
2013-01-20 15:58:00,31.5,15.4,27.37,North,0,17.5,24.2,51,0.00,,---,0.00,VWS V14.01,2013-01-20 21:58:00,
2013-01-20 16:00:00,27.3,12.5,27.43,NNE,22,14.8,20.4,53,0.00,,---,0.00,VWS V14.01,2013-01-20 22:00:00,
2013-01-20 16:03:00,31.5,15.4,27.37,North,0,17.5,19.5,51,0.00,,---,0.00,VWS V14.01,2013-01-20 22:03:00,
2013-01-20 16:08:00,31.3,15.3,27.37,North,0,15.2,25.1,51,0.00,,---,0.00,VWS V14.01,2013-01-20 22:08:00,
2013-01-20 16:13:00,31.5,15.4,27.37,NNE,22,12.5,25.1,51,0.00,,---,0.00,VWS V14.01,2013-01-20 22:13:00,
2013-01-20 16:15:00,26.8,12.4,27.43,NNE,22,9.4,14.8,54,0.00,,---,0.00,VWS V14.01,2013-01-20 22:15:00,
2013-01-20 16:18:00,31.1,14.6,27.37,NNE,22,10.3,19.7,50,0.00,,---,0.00,VWS V14.01,2013-01-20 22:18:00,
2013-01-20 16:23:00,31.5,15.0,27.37,NE,45,13.2,19.7,50,0.00,,---,0.00,VWS V14.01,2013-01-20 22:23:00,
2013-01-20 16:28:00,30.7,14.3,27.37,NE,45,17.9,19.7,50,0.00,,---,0.00,VWS V14.01,2013-01-20 22:28:00,
2013-01-20 16:30:00,25.7,12.2,27.43,NE,45,10.5,16.3,56,0.00,,---,0.00,VWS V14.01,2013-01-20 22:30:00,
2013-01-20 16:33:00,29.8,13.9,27.43,North,0,13.0,13.2,51,0.00,,---,0.00,VWS V14.01,2013-01-20 22:33:00,
2013-01-20 16:38:00,29.5,13.6,27.43,North,0,13.2,17.7,51,0.00,,---,0.00,VWS V14.01,2013-01-20 22:38:00,
2013-01-20 16:43:00,28.8,13.4,27.43,NE,45,13.0,18.1,52,0.00,,---,0.00,VWS V14.01,2013-01-20 22:43:00,
2013-01-20 16:45:00,24.4,11.4,27.43,North,0,7.2,13.4,57,0.00,,---,0.00,VWS V14.01,2013-01-20 22:45:00,
2013-01-20 16:48:00,28.0,12.7,27.43,NNE,22,15.2,19.7,52,0.00,,---,0.00,VWS V14.01,2013-01-20 22:48:00,
2013-01-20 16:53:00,27.7,12.8,27.43,NNE,22,13.0,19.7,53,0.00,,---,0.00,VWS V14.01,2013-01-20 22:53:00,
2013-01-20 16:58:00,27.5,12.6,27.43,NNE,22,15.9,20.4,53,0.00,,---,0.00,VWS V14.01,2013-01-20 22:58:00,
2013-01-20 17:00:00,23.4,11.5,27.43,North,0,4.9,10.3,60,0.00,,---,0.00,VWS V14.01,2013-01-20 23:00:00,
2013-01-20 17:03:00,27.0,12.1,27.43,NNE,22,10.1,14.8,53,0.00,,---,0.00,VWS V14.01,2013-01-20 23:03:00,
2013-01-20 17:08:00,27.0,12.6,27.43,NNE,22,7.8,14.8,54,0.00,,---,0.00,VWS V14.01,2013-01-20 23:08:00,
2013-01-20 17:13:00,27.0,12.6,27.43,NE,45,4.0,14.8,54,0.00,,---,0.00,VWS V14.01,2013-01-20 23:13:00,
2013-01-20 17:15:00,22.8,12.1,27.40,NNE,22,6.0,8.1,63,0.00,,---,0.00,VWS V14.01,2013-01-20 23:15:00,
2013-01-20 17:18:00,26.6,12.6,27.43,NE,45,7.8,13.2,55,0.00,,---,0.00,VWS V14.01,2013-01-20 23:18:00,
2013-01-20 17:23:00,26.1,12.1,27.43,NE,45,13.6,16.3,55,0.00,,---,0.00,VWS V14.01,2013-01-20 23:23:00,
2013-01-20 17:28:00,25.7,11.8,27.43,NE,45,7.6,16.3,55,0.00,,---,0.00,VWS V14.01,2013-01-20 23:28:00,
2013-01-20 17:30:00,21.9,12.0,27.43,NE,45,5.4,7.2,65,0.00,,---,0.00,VWS V14.01,2013-01-20 23:30:00,
2013-01-20 17:33:00,25.3,11.9,27.43,NE,45,12.3,12.3,56,0.00,,---,0.00,VWS V14.01,2013-01-20 23:33:00,
2013-01-20 17:38:00,25.0,11.5,27.43,NE,45,10.7,13.4,56,0.00,,---,0.00,VWS V14.01,2013-01-20 23:38:00,
2013-01-20 17:43:00,24.6,11.6,27.43,North,0,7.6,13.4,57,0.00,,---,0.00,VWS V14.01,2013-01-20 23:43:00,
2013-01-20 17:45:00,21.6,12.6,27.43,North,0,3.6,8.1,68,0.00,,---,0.00,VWS V14.01,2013-01-20 23:45:00,
2013-01-20 17:48:00,24.1,11.5,27.43,NNE,22,10.3,10.3,58,0.00,,---,0.00,VWS V14.01,2013-01-20 23:48:00,
2013-01-20 17:53:00,23.7,11.5,27.43,North,0,7.8,10.3,59,0.00,,---,0.00,VWS V14.01,2013-01-20 23:53:00,
2013-01-20 17:58:00,23.5,11.7,27.43,North,0,4.3,10.3,60,0.00,,---,0.00,VWS V14.01,2013-01-20 23:58:00,
2013-01-20 18:00:00,20.7,11.4,27.43,North,0,4.0,5.6,67,0.00,,---,0.00,VWS V14.01,2013-01-21 00:00:00,
2013-01-20 18:03:00,23.0,11.6,27.40,North,0,5.8,6.5,61,0.00,,---,0.00,VWS V14.01,2013-01-21 00:03:00,
2013-01-20 18:08:00,22.8,11.8,27.40,NNE,22,6.5,7.6,62,0.00,,---,0.00,VWS V14.01,2013-01-21 00:08:00,
2013-01-20 18:13:00,22.8,12.1,27.40,NNE,22,7.6,8.1,63,0.00,,---,0.00,VWS V14.01,2013-01-21 00:13:00,
2013-01-20 18:15:00,19.2,10.1,27.43,NE,45,3.1,4.9,67,0.00,,---,0.00,VWS V14.01,2013-01-21 00:15:00,
2013-01-20 18:18:00,22.5,12.1,27.43,NE,45,6.0,6.5,64,0.00,,---,0.00,VWS V14.01,2013-01-21 00:18:00,
2013-01-20 18:23:00,22.3,12.0,27.43,NE,45,4.9,7.2,64,0.00,,---,0.00,VWS V14.01,2013-01-21 00:23:00,
2013-01-20 18:28:00,21.9,12.0,27.43,NNE,22,4.9,7.2,65,0.00,,---,0.00,VWS V14.01,2013-01-21 00:28:00,
2013-01-20 18:30:00,18.9,11.3,27.43,NW,315,0.0,3.6,72,0.00,,---,0.00,VWS V14.01,2013-01-21 00:30:00,
2013-01-20 18:33:00,21.9,12.0,27.43,NNE,22,5.8,5.8,65,0.00,,---,0.00,VWS V14.01,2013-01-21 00:33:00,
2013-01-20 18:38:00,21.7,12.1,27.43,NNE,22,6.3,7.4,66,0.00,,---,0.00,VWS V14.01,2013-01-21 00:38:00,
2013-01-20 18:43:00,21.6,12.6,27.43,NNE,22,4.5,8.1,68,0.00,,---,0.00,VWS V14.01,2013-01-21 00:43:00,
2013-01-20 18:45:00,18.1,11.3,27.43,WNW,292,3.1,4.0,74,0.00,,---,0.00,VWS V14.01,2013-01-21 00:45:00,
2013-01-20 18:48:00,21.4,12.1,27.43,NE,45,3.4,5.6,67,0.00,,---,0.00,VWS V14.01,2013-01-21 00:48:00,
2013-01-20 18:53:00,21.2,12.0,27.43,NNE,22,3.4,5.6,67,0.00,,---,0.00,VWS V14.01,2013-01-21 00:53:00,
2013-01-20 18:58:00,20.7,11.4,27.43,North,0,3.8,5.6,67,0.00,,---,0.00,VWS V14.01,2013-01-21 00:58:00,
2013-01-20 19:00:00,18.3,12.3,27.46,NW,315,2.0,4.0,77,0.00,,---,0.00,VWS V14.01,2013-01-21 01:00:00,
2013-01-20 19:03:00,20.3,11.4,27.43,North,0,4.3,4.9,68,0.00,,---,0.00,VWS V14.01,2013-01-21 01:03:00,
2013-01-20 19:08:00,20.1,11.3,27.43,North,0,3.1,4.9,68,0.00,,---,0.00,VWS V14.01,2013-01-21 01:08:00,
2013-01-20 19:13:00,19.2,10.1,27.43,NNE,22,2.9,4.9,67,0.00,,---,0.00,VWS V14.01,2013-01-21 01:13:00,
2013-01-20 19:15:00,18.9,12.3,27.46,NNE,22,0.0,2.5,75,0.00,,---,0.00,VWS V14.01,2013-01-21 01:15:00,
2013-01-20 19:18:00,18.9,9.7,27.43,North,0,2.7,3.1,67,0.00,,---,0.00,VWS V14.01,2013-01-21 01:18:00,
2013-01-20 19:23:00,19.0,10.9,27.43,NW,315,3.1,3.4,70,0.00,,---,0.00,VWS V14.01,2013-01-21 01:23:00,
2013-01-20 19:28:00,18.9,11.6,27.43,NNW,338,2.0,3.6,73,0.00,,---,0.00,VWS V14.01,2013-01-21 01:28:00,
2013-01-20 19:30:00,18.7,11.5,27.46,WNW,292,2.2,2.2,73,0.00,,---,0.00,VWS V14.01,2013-01-21 01:30:00,
2013-01-20 19:33:00,18.7,11.2,27.43,NW,315,2.2,2.2,72,0.00,,---,0.00,VWS V14.01,2013-01-21 01:33:00,
2013-01-20 19:38:00,18.7,11.8,27.43,WNW,292,4.0,4.0,74,0.00,,---,0.00,VWS V14.01,2013-01-21 01:38:00,
2013-01-20 19:43:00,18.1,11.0,27.43,WNW,292,2.5,4.0,73,0.00,,---,0.00,VWS V14.01,2013-01-21 01:43:00,
2013-01-20 19:45:00,18.9,12.0,27.49,North,0,0.0,3.4,74,0.00,,---,0.00,VWS V14.01,2013-01-21 01:45:00,
2013-01-20 19:48:00,18.1,11.3,27.43,WNW,292,2.9,4.0,74,0.00,,---,0.00,VWS V14.01,2013-01-21 01:48:00,
2013-01-20 19:53:00,18.1,12.2,27.46,NW,315,3.1,4.0,77,0.00,,---,0.00,VWS V14.01,2013-01-21 01:53:00,
2013-01-20 19:58:00,18.3,12.3,27.46,NW,315,3.1,4.0,77,0.00,,---,0.00,VWS V14.01,2013-01-21 01:58:00,
2013-01-20 20:00:00,18.7,11.8,27.49,WSW,248,0.0,0.0,74,0.00,,---,0.00,VWS V14.01,2013-01-21 02:00:00,
2013-01-20 20:03:00,18.5,12.5,27.46,NW,315,2.2,2.2,77,0.00,,---,0.00,VWS V14.01,2013-01-21 02:03:00,
2013-01-20 20:08:00,18.7,12.4,27.46,WNW,292,0.0,2.5,76,0.00,,---,0.00,VWS V14.01,2013-01-21 02:08:00,
2013-01-20 20:13:00,18.9,12.3,27.46,North,0,0.0,2.5,75,0.00,,---,0.00,VWS V14.01,2013-01-21 02:13:00,
2013-01-20 20:15:00,19.4,13.1,27.46,NW,315,0.0,2.0,76,0.00,,---,0.00,VWS V14.01,2013-01-21 02:15:00,
2013-01-20 20:18:00,18.7,11.8,27.46,NE,45,0.0,0.0,74,0.00,,---,0.00,VWS V14.01,2013-01-21 02:18:00,
2013-01-20 20:23:00,18.5,11.3,27.46,NW,315,0.0,0.0,73,0.00,,---,0.00,VWS V14.01,2013-01-21 02:23:00,
2013-01-20 20:28:00,18.7,11.5,27.46,West,270,1.1,1.3,73,0.00,,---,0.00,VWS V14.01,2013-01-21 02:28:00,
2013-01-20 20:30:00,19.8,13.4,27.49,NW,315,0.0,1.6,76,0.00,,---,0.00,VWS V14.01,2013-01-21 02:30:00,
2013-01-20 20:33:00,18.9,12.3,27.49,NW,315,0.0,2.2,75,0.00,,---,0.00,VWS V14.01,2013-01-21 02:33:00,
2013-01-20 20:38:00,19.0,12.1,27.49,SE,135,0.0,2.2,74,0.00,,---,0.00,VWS V14.01,2013-01-21 02:38:00,
2013-01-20 20:43:00,18.7,11.8,27.49,North,0,0.0,3.4,74,0.00,,---,0.00,VWS V14.01,2013-01-21 02:43:00,
2013-01-20 20:45:00,19.8,12.8,27.49,WNW,292,0.0,2.5,74,0.00,,---,0.00,VWS V14.01,2013-01-21 02:45:00,
2013-01-20 20:48:00,19.0,11.8,27.49,NW,315,0.0,0.0,73,0.00,,---,0.00,VWS V14.01,2013-01-21 02:48:00,
2013-01-20 20:53:00,19.0,11.8,27.49,NW,315,0.0,0.0,73,0.00,,---,0.00,VWS V14.01,2013-01-21 02:53:00,
2013-01-20 20:58:00,18.9,11.6,27.49,NW,315,0.0,0.0,73,0.00,,---,0.00,VWS V14.01,2013-01-21 02:58:00,
2013-01-20 21:00:00,19.6,13.0,27.46,NNW,338,0.0,2.5,75,0.00,,---,0.00,VWS V14.01,2013-01-21 03:00:00,
2013-01-20 21:03:00,18.7,12.4,27.46,West,270,0.0,0.0,76,0.00,,---,0.00,VWS V14.01,2013-01-21 03:03:00,
2013-01-20 21:08:00,19.0,12.1,27.46,NW,315,0.0,1.6,74,0.00,,---,0.00,VWS V14.01,2013-01-21 03:08:00,
2013-01-20 21:13:00,19.2,12.9,27.46,NW,315,0.0,2.0,76,0.00,,---,0.00,VWS V14.01,2013-01-21 03:13:00,
2013-01-20 21:15:00,19.0,12.1,27.49,North,0,1.1,1.6,74,0.00,,---,0.00,VWS V14.01,2013-01-21 03:15:00,
2013-01-20 21:18:00,19.4,13.1,27.49,WNW,292,1.6,1.6,76,0.00,,---,0.00,VWS V14.01,2013-01-21 03:18:00,
2013-01-20 21:23:00,19.8,13.4,27.49,NNW,338,1.1,1.6,76,0.00,,---,0.00,VWS V14.01,2013-01-21 03:23:00,
2013-01-20 21:28:00,19.8,13.4,27.49,NW,315,0.0,1.6,76,0.00,,---,0.00,VWS V14.01,2013-01-21 03:28:00,
2013-01-20 21:30:00,16.9,10.0,27.46,North,0,3.4,3.8,74,0.00,,---,0.00,VWS V14.01,2013-01-21 03:30:00,
2013-01-20 21:33:00,19.8,13.1,27.49,NW,315,0.0,0.0,75,0.00,,---,0.00,VWS V14.01,2013-01-21 03:33:00,
2013-01-20 21:38:00,19.9,13.0,27.49,NNW,338,0.0,0.0,74,0.00,,---,0.00,VWS V14.01,2013-01-21 03:38:00,
2013-01-20 21:43:00,19.8,12.8,27.49,NNW,338,0.0,0.0,74,0.00,,---,0.00,VWS V14.01,2013-01-21 03:43:00,
2013-01-20 21:45:00,16.7,11.9,27.46,North,0,2.5,3.8,81,0.00,,---,0.00,VWS V14.01,2013-01-21 03:45:00,
2013-01-20 21:48:00,19.9,13.0,27.46,NW,315,2.0,2.5,74,0.00,,---,0.00,VWS V14.01,2013-01-21 03:48:00,
2013-01-20 21:53:00,19.9,13.6,27.46,NNW,338,0.0,2.5,76,0.00,,---,0.00,VWS V14.01,2013-01-21 03:53:00,
2013-01-20 21:58:00,19.8,13.1,27.46,NNW,338,0.0,2.5,75,0.00,,---,0.00,VWS V14.01,2013-01-21 03:58:00,
2013-01-20 22:00:00,16.0,10.9,27.49,East,90,0.0,3.1,80,0.00,,---,0.00,VWS V14.01,2013-01-21 04:00:00,
2013-01-20 22:03:00,19.4,12.8,27.49,NNW,338,0.0,0.0,75,0.00,,---,0.00,VWS V14.01,2013-01-21 04:03:00,
2013-01-20 22:08:00,19.0,12.1,27.49,North,0,0.0,1.6,74,0.00,,---,0.00,VWS V14.01,2013-01-21 04:08:00,
2013-01-20 22:13:00,19.0,12.1,27.49,NW,315,0.0,1.6,74,0.00,,---,0.00,VWS V14.01,2013-01-21 04:13:00,
2013-01-20 22:15:00,14.5,9.2,27.46,ENE,68,0.0,3.4,79,0.00,,---,0.00,VWS V14.01,2013-01-21 04:15:00,
2013-01-20 22:18:00,18.7,12.1,27.46,North,0,2.5,2.7,75,0.00,,---,0.00,VWS V14.01,2013-01-21 04:18:00,
2013-01-20 22:23:00,17.8,11.2,27.46,North,0,3.1,3.8,75,0.00,,---,0.00,VWS V14.01,2013-01-21 04:23:00,
2013-01-20 22:28:00,16.9,10.0,27.46,North,0,3.1,3.8,74,0.00,,---,0.00,VWS V14.01,2013-01-21 04:28:00,
2013-01-20 22:30:00,14.5,9.2,27.46,NE,45,1.6,2.5,79,0.00,,---,0.00,VWS V14.01,2013-01-21 04:30:00,
2013-01-20 22:33:00,16.3,10.1,27.46,North,0,3.4,3.8,76,0.00,,---,0.00,VWS V14.01,2013-01-21 04:33:00,
2013-01-20 22:38:00,16.3,10.1,27.46,North,0,2.5,3.8,76,0.00,,---,0.00,VWS V14.01,2013-01-21 04:38:00,
2013-01-20 22:43:00,16.9,12.1,27.46,North,0,2.5,3.8,81,0.00,,---,0.00,VWS V14.01,2013-01-21 04:43:00,
2013-01-20 22:45:00,15.8,11.3,27.46,NW,315,2.2,3.1,82,0.00,,---,0.00,VWS V14.01,2013-01-21 04:45:00,
2013-01-20 22:48:00,16.2,11.1,27.49,North,0,2.7,3.1,80,0.00,,---,0.00,VWS V14.01,2013-01-21 04:48:00,
2013-01-20 22:53:00,16.0,10.6,27.49,North,0,0.0,3.1,79,0.00,,---,0.00,VWS V14.01,2013-01-21 04:53:00,
2013-01-20 22:58:00,16.0,10.9,27.49,SSW,202,0.0,3.1,80,0.00,,---,0.00,VWS V14.01,2013-01-21 04:58:00,
2013-01-20 23:00:00,16.0,10.9,27.49,NE,45,0.0,0.0,80,0.00,,---,0.00,VWS V14.01,2013-01-21 05:00:00,
2013-01-20 23:03:00,15.3,9.6,27.46,NNW,338,2.2,2.7,78,0.00,,---,0.00,VWS V14.01,2013-01-21 05:03:00,
2013-01-20 23:08:00,14.9,9.6,27.46,SE,135,2.2,3.4,79,0.00,,---,0.00,VWS V14.01,2013-01-21 05:08:00,
2013-01-20 23:13:00,14.5,8.9,27.46,ENE,68,2.0,3.4,78,0.00,,---,0.00,VWS V14.01,2013-01-21 05:13:00,
2013-01-20 23:15:00,15.8,11.0,27.46,NE,45,0.0,0.0,81,0.00,,---,0.00,VWS V14.01,2013-01-21 05:15:00,
2013-01-20 23:18:00,14.5,9.2,27.46,ENE,68,0.0,0.0,79,0.00,,---,0.00,VWS V14.01,2013-01-21 05:18:00,
2013-01-20 23:23:00,14.5,9.2,27.46,SE,135,0.9,2.5,79,0.00,,---,0.00,VWS V14.01,2013-01-21 05:23:00,
2013-01-20 23:28:00,14.5,9.2,27.46,NE,45,0.0,2.5,79,0.00,,---,0.00,VWS V14.01,2013-01-21 05:28:00,
2013-01-20 23:30:00,15.3,10.2,27.46,NE,45,0.0,3.1,80,0.00,,---,0.00,VWS V14.01,2013-01-21 05:30:00,
2013-01-20 23:33:00,14.9,9.6,27.46,NE,45,0.0,2.0,79,0.00,,---,0.00,VWS V14.01,2013-01-21 05:33:00,
2013-01-20 23:38:00,15.4,10.4,27.46,NE,45,1.3,3.1,80,0.00,,---,0.00,VWS V14.01,2013-01-21 05:38:00,
2013-01-20 23:43:00,16.0,11.2,27.46,NW,315,2.7,3.1,81,0.00,,---,0.00,VWS V14.01,2013-01-21 05:43:00,
2013-01-20 23:45:00,14.2,9.2,27.43,NNW,338,2.0,2.9,80,0.00,,---,0.00,VWS V14.01,2013-01-21 05:45:00,
2013-01-20 23:48:00,15.4,10.9,27.46,NW,315,2.2,2.2,82,0.00,,---,0.00,VWS V14.01,2013-01-21 05:48:00,
2013-01-20 23:53:00,15.6,11.4,27.46,NW,315,0.0,2.5,83,0.00,,---,0.00,VWS V14.01,2013-01-21 05:53:00,
2013-01-20 23:58:00,15.6,11.1,27.46,NW,315,0.0,2.5,82,0.00,,---,0.00,VWS V14.01,2013-01-21 05:58:00,